createdAt,value
2023-01-27T00:00:35.595Z,9.45
2023-01-27T00:03:02.024Z,9.35
2023-01-27T00:05:28.409Z,9.15
2023-01-27T00:07:58.611Z,9.18
2023-01-27T00:10:25.912Z,10.25
2023-01-27T00:13:11.279Z,9.45
2023-01-27T00:15:37.897Z,9.85
2023-01-27T00:18:04.681Z,8.98
2023-01-27T00:20:49.620Z,8.75
2023-01-27T00:23:37.466Z,8.00
2023-01-27T00:26:06.683Z,9.43
2023-01-27T00:28:34.783Z,8.88
2023-01-27T00:31:01.646Z,8.38
2023-01-27T00:33:29.251Z,8.73
2023-01-27T00:36:07.041Z,8.57
2023-01-27T00:38:40.638Z,9.13
2023-01-27T00:41:20.274Z,7.95
2023-01-27T00:43:49.605Z,7.78
2023-01-27T00:46:17.351Z,8.43
2023-01-27T00:48:44.240Z,8.27
2023-01-27T00:51:11.779Z,7.20
2023-01-27T00:53:38.245Z,7.75
2023-01-27T00:56:05.200Z,7.88
2023-01-27T00:58:31.752Z,7.70
2023-01-27T01:01:00.623Z,7.40
2023-01-27T01:03:31.457Z,8.20
2023-01-27T01:06:07.921Z,8.20
2023-01-27T01:08:35.540Z,8.65
2023-01-27T01:11:02.404Z,8.02
2023-01-27T01:13:28.906Z,9.60
2023-01-27T01:15:56.207Z,8.00
2023-01-27T01:18:23.403Z,6.82
2023-01-27T01:20:50.153Z,8.55
2023-01-27T01:23:16.845Z,8.00
2023-01-27T01:25:43.362Z,6.85
2023-01-27T01:28:11.543Z,7.78
2023-01-27T01:30:38.421Z,8.65
2023-01-27T01:33:05.053Z,6.95
2023-01-27T01:35:32.018Z,8.07
2023-01-27T01:37:58.673Z,7.43
2023-01-27T01:40:25.848Z,7.43
2023-01-27T01:42:54.223Z,7.70
2023-01-27T01:45:33.529Z,8.35
2023-01-27T01:48:03.403Z,7.38
2023-01-27T01:50:30.587Z,7.55
2023-01-27T01:52:59.375Z,7.95
2023-01-27T01:55:25.907Z,8.00
2023-01-27T01:57:52.552Z,8.40
2023-01-27T02:00:19.453Z,9.07
2023-01-27T02:02:48.400Z,7.50
2023-01-27T02:05:19.402Z,8.93
2023-01-27T02:07:57.657Z,8.20
2023-01-27T02:10:24.309Z,6.78
2023-01-27T02:12:50.828Z,7.03
2023-01-27T02:15:18.156Z,7.78
2023-01-27T02:17:44.729Z,6.82
2023-01-27T02:20:29.329Z,7.82
2023-01-27T02:23:15.728Z,7.65
2023-01-27T02:25:55.014Z,7.80
2023-01-27T02:28:22.064Z,8.13
2023-01-27T02:30:48.527Z,8.52
2023-01-27T02:33:15.793Z,7.00
2023-01-27T02:36:04.510Z,7.00
2023-01-27T02:38:37.166Z,7.05
2023-01-27T02:41:11.456Z,8.43
2023-01-27T02:43:37.878Z,7.85
2023-01-27T02:46:04.543Z,7.38
2023-01-27T02:48:31.093Z,7.68
2023-01-27T02:50:57.546Z,7.07
2023-01-27T02:53:23.953Z,7.07
2023-01-27T02:55:50.334Z,6.72
2023-01-27T02:58:16.836Z,6.90
2023-01-27T03:00:43.781Z,8.05
2023-01-27T03:03:10.202Z,8.07
2023-01-27T03:05:36.603Z,8.45
2023-01-27T03:08:03.018Z,7.82
2023-01-27T03:10:29.497Z,7.15
2023-01-27T03:12:55.906Z,8.30
2023-01-27T03:15:40.913Z,7.43
2023-01-27T03:18:27.167Z,7.47
2023-01-27T03:21:02.227Z,7.10
2023-01-27T03:23:29.089Z,6.88
2023-01-27T03:25:55.538Z,7.38
2023-01-27T03:28:21.923Z,8.88
2023-01-27T03:30:48.489Z,8.30
2023-01-27T03:33:14.900Z,6.78
2023-01-27T03:35:48.117Z,7.45
2023-01-27T03:41:22.608Z,6.95
2023-01-27T03:44:07.454Z,9.32
2023-01-27T03:46:33.925Z,8.73
2023-01-27T03:49:01.041Z,6.50
2023-01-27T03:51:27.444Z,6.82
2023-01-27T03:53:54.113Z,8.15
2023-01-27T03:56:21.793Z,9.32
2023-01-27T03:58:49.871Z,8.00
2023-01-27T04:01:21.996Z,8.00
2023-01-27T04:04:08.117Z,7.63
2023-01-27T04:06:57.277Z,7.55
2023-01-27T04:09:27.628Z,6.90
2023-01-27T04:11:55.568Z,7.68
2023-01-27T04:14:23.042Z,7.00
2023-01-27T04:16:50.975Z,6.97
2023-01-27T04:19:18.141Z,8.25
2023-01-27T04:21:44.581Z,7.82
2023-01-27T04:24:22.418Z,8.07
2023-01-27T04:26:51.581Z,7.68
2023-01-27T04:29:18.078Z,7.90
2023-01-27T04:31:44.479Z,6.82
2023-01-27T04:34:12.404Z,8.43
2023-01-27T04:36:40.020Z,8.57
2023-01-27T04:39:07.787Z,7.15
2023-01-27T04:41:34.369Z,8.35
2023-01-27T04:44:02.022Z,6.43
2023-01-27T04:46:28.610Z,8.10
2023-01-27T04:48:55.022Z,8.07
2023-01-27T04:51:21.457Z,7.72
2023-01-27T04:53:47.952Z,7.30
2023-01-27T04:56:37.359Z,7.43
2023-01-27T04:59:06.558Z,7.13
2023-01-27T05:01:33.287Z,7.47
2023-01-27T05:04:00.042Z,7.78
2023-01-27T05:06:26.809Z,7.78
2023-01-27T05:08:53.481Z,8.55
2023-01-27T05:11:20.209Z,7.65
2023-01-27T05:13:46.963Z,6.75
2023-01-27T05:16:20.494Z,7.63
2023-01-27T05:18:48.894Z,7.38
2023-01-27T05:21:18.652Z,8.23
2023-01-27T05:23:45.391Z,7.38
2023-01-27T05:26:17.803Z,8.27
2023-01-27T05:28:45.955Z,7.20
2023-01-27T05:31:15.627Z,8.07
2023-01-27T05:33:42.708Z,6.65
2023-01-27T05:36:12.585Z,7.13
2023-01-27T05:38:39.438Z,5.60
2023-01-27T05:41:07.496Z,8.05
2023-01-27T05:43:35.781Z,7.78
2023-01-27T05:46:15.787Z,8.30
2023-01-27T05:48:45.753Z,8.23
2023-01-27T05:51:15.146Z,8.02
2023-01-27T05:53:42.208Z,7.50
2023-01-27T05:56:10.629Z,6.72
2023-01-27T05:58:37.718Z,6.25
2023-01-27T06:01:14.425Z,5.68
2023-01-27T06:03:41.736Z,7.47
2023-01-27T06:06:09.650Z,6.97
2023-01-27T06:08:37.010Z,6.88
2023-01-27T06:11:03.961Z,7.30
2023-01-27T06:13:30.481Z,6.60
2023-01-27T06:15:57.128Z,9.10
2023-01-27T06:18:24.306Z,7.65
2023-01-27T06:20:51.190Z,7.70
2023-01-27T06:23:18.380Z,7.97
2023-01-27T06:25:47.494Z,8.77
2023-01-27T06:28:28.081Z,7.72
2023-01-27T06:30:56.191Z,10.23
2023-01-27T06:33:23.323Z,11.40
2023-01-27T06:35:49.912Z,10.35
2023-01-27T06:38:16.662Z,9.95
2023-01-27T06:40:44.373Z,8.40
2023-01-27T06:43:14.190Z,7.85
2023-01-27T06:45:41.025Z,9.68
2023-01-27T06:48:08.669Z,8.98
2023-01-27T06:50:36.663Z,8.00
2023-01-27T06:53:11.895Z,9.63
2023-01-27T07:01:07.174Z,6.07
2023-01-27T07:06:20.295Z,7.20
2023-01-27T07:08:47.714Z,5.45
2023-01-27T07:19:14.369Z,6.75
2023-01-27T07:21:40.817Z,6.53
2023-01-27T07:24:07.446Z,5.93
2023-01-27T07:26:34.204Z,6.13
2023-01-27T07:29:00.626Z,6.80
2023-01-27T07:31:27.379Z,6.10
2023-01-27T07:33:54.170Z,5.57
2023-01-27T07:36:20.674Z,6.20
2023-01-27T07:38:50.915Z,5.78
2023-01-27T07:41:17.302Z,6.93
2023-01-27T07:43:43.674Z,6.63
2023-01-27T07:46:13.196Z,7.28
2023-01-27T07:48:39.623Z,6.32
2023-01-27T07:51:06.103Z,6.03
2023-01-27T07:53:32.516Z,6.75
2023-01-27T07:56:00.476Z,6.53
2023-01-27T07:58:27.002Z,5.50
2023-01-27T08:00:53.415Z,6.22
2023-01-27T08:03:24.902Z,6.57
2023-01-27T08:05:51.460Z,6.03
2023-01-27T08:08:18.986Z,6.45
2023-01-27T08:10:49.121Z,6.50
2023-01-27T08:13:16.243Z,6.30
2023-01-27T08:15:42.939Z,5.25
2023-01-27T08:18:09.701Z,7.95
2023-01-27T08:20:36.216Z,6.10
2023-01-27T08:23:02.693Z,6.22
2023-01-27T08:25:29.143Z,6.60
2023-01-27T08:27:56.531Z,6.15
2023-01-27T08:30:23.089Z,5.88
2023-01-27T08:32:49.880Z,5.57
2023-01-27T08:35:16.445Z,6.40
2023-01-27T08:37:42.861Z,7.32
2023-01-27T08:40:09.916Z,7.13
2023-01-27T08:42:36.341Z,6.97
2023-01-27T08:45:02.936Z,6.07
2023-01-27T08:47:30.143Z,6.20
2023-01-27T08:49:56.544Z,5.60
2023-01-27T08:52:23.465Z,5.90
2023-01-27T08:54:49.881Z,5.07
2023-01-27T08:57:16.380Z,5.35
2023-01-27T08:59:42.737Z,7.25
2023-01-27T09:02:12.787Z,5.70
2023-01-27T09:04:43.712Z,5.20
2023-01-27T09:07:10.998Z,4.07
2023-01-27T09:09:37.436Z,4.72
2023-01-27T09:12:04.012Z,4.70
2023-01-27T09:14:30.548Z,4.18
2023-01-27T09:16:57.035Z,3.17
2023-01-27T09:19:23.484Z,4.00
2023-01-27T09:21:49.964Z,3.28
2023-01-27T09:24:17.827Z,3.53
2023-01-27T09:26:44.298Z,3.60
2023-01-27T09:29:10.640Z,3.20
2023-01-27T09:31:37.097Z,2.85
2023-01-27T09:34:04.466Z,3.17
2023-01-27T09:36:35.313Z,3.38
2023-01-27T09:39:05.663Z,1.65
2023-01-27T09:41:50.822Z,2.60
2023-01-27T09:44:42.801Z,3.33
2023-01-27T09:47:38.204Z,2.58
2023-01-27T09:50:10.764Z,2.28
2023-01-27T09:52:58.213Z,3.03
2023-01-27T09:55:30.576Z,2.40
2023-01-27T09:58:09.670Z,2.97
2023-01-27T10:00:54.991Z,3.72
2023-01-27T10:03:43.645Z,3.05
2023-01-27T10:06:38.753Z,3.78
2023-01-27T10:09:42.501Z,3.72
2023-01-27T10:12:18.084Z,3.00
2023-01-27T10:14:57.432Z,3.17
2023-01-27T10:17:31.225Z,4.45
2023-01-27T10:20:09.259Z,4.47
2023-01-27T10:23:02.130Z,4.30
2023-01-27T10:25:55.289Z,3.50
2023-01-27T10:28:30.048Z,4.63
2023-01-27T10:31:16.167Z,2.67
2023-01-27T10:33:59.409Z,3.58
2023-01-27T10:36:36.101Z,3.92
2023-01-27T10:39:27.301Z,4.18
2023-01-27T10:42:04.689Z,4.07
2023-01-27T10:45:01.917Z,4.75
2023-01-27T10:47:34.259Z,4.40
2023-01-27T10:50:07.403Z,3.15
2023-01-27T10:52:37.410Z,4.45
2023-01-27T10:55:14.708Z,4.25
2023-01-27T10:58:04.870Z,4.32
2023-01-27T11:01:14.048Z,4.07
2023-01-27T11:03:35.013Z,3.65
2023-01-27T11:06:08.158Z,4.13
2023-01-27T11:11:25.748Z,3.20
2023-01-27T11:14:02.612Z,4.03
2023-01-27T11:16:34.599Z,3.63
2023-01-27T11:19:13.909Z,3.80
2023-01-27T11:21:41.600Z,3.65
2023-01-27T11:24:21.858Z,2.80
2023-01-27T11:26:57.005Z,2.72
2023-01-27T11:29:40.886Z,3.63
2023-01-27T11:32:30.982Z,2.85
2023-01-27T11:35:14.490Z,3.47
2023-01-27T11:37:43.152Z,2.83
2023-01-27T11:40:29.898Z,4.25
2023-01-27T11:43:00.155Z,3.83
2023-01-27T11:45:30.656Z,3.97
2023-01-27T11:48:00.432Z,4.63
2023-01-27T11:50:33.756Z,3.50
2023-01-27T11:53:22.203Z,3.42
2023-01-27T11:55:54.135Z,3.80
2023-01-27T11:58:25.457Z,4.43
2023-01-27T12:01:00.496Z,4.15
2023-01-27T12:03:43.058Z,4.35
2023-01-27T12:06:16.177Z,5.72
2023-01-27T12:08:45.846Z,3.33
2023-01-27T12:11:19.715Z,19.65
2023-01-27T12:13:51.487Z,5.28
2023-01-27T12:16:18.357Z,4.47
2023-01-27T12:19:04.362Z,4.10
2023-01-27T12:21:38.365Z,4.68
2023-01-27T12:24:07.619Z,3.90
2023-01-27T12:26:40.468Z,4.35
2023-01-27T12:29:22.831Z,6.88
2023-01-27T12:31:52.898Z,5.45
2023-01-27T12:34:23.714Z,4.82
2023-01-27T12:36:51.525Z,4.20
2023-01-27T12:39:57.006Z,3.78
2023-01-27T12:42:41.853Z,4.50
2023-01-27T12:45:19.111Z,3.83
2023-01-27T12:48:00.616Z,3.40
2023-01-27T12:50:29.174Z,4.35
2023-01-27T12:53:13.772Z,4.57
2023-01-27T12:55:52.105Z,3.72
2023-01-27T12:58:28.625Z,3.42
2023-01-27T13:00:55.479Z,4.10
2023-01-27T13:03:22.453Z,4.25
2023-01-27T13:05:53.748Z,4.32
2023-01-27T13:08:20.550Z,4.85
2023-01-27T13:10:53.841Z,4.90
2023-01-27T13:13:30.770Z,3.97
2023-01-27T13:16:15.462Z,4.78
2023-01-27T13:18:42.443Z,4.47
2023-01-27T13:21:21.316Z,3.55
2023-01-27T13:23:48.285Z,5.82
2023-01-27T13:26:26.888Z,7.32
2023-01-27T13:29:04.739Z,7.10
2023-01-27T13:31:41.730Z,4.82
2023-01-27T13:34:35.765Z,4.07
2023-01-27T13:37:24.410Z,3.55
2023-01-27T13:40:03.450Z,4.70
2023-01-27T13:42:43.646Z,5.70
2023-01-27T13:45:21.625Z,3.28
2023-01-27T13:47:57.201Z,5.22
2023-01-27T13:50:35.324Z,4.95
2023-01-27T13:53:02.620Z,4.47
2023-01-27T13:55:49.202Z,3.28
2023-01-27T13:58:29.648Z,4.60
2023-01-27T14:01:02.913Z,4.03
2023-01-27T14:03:51.219Z,3.55
2023-01-27T14:06:17.514Z,4.07
2023-01-27T14:08:53.028Z,6.05
2023-01-27T14:11:30.029Z,6.43
2023-01-27T14:14:12.586Z,5.47
2023-01-27T14:16:48.669Z,4.27
2023-01-27T14:19:35.273Z,3.78
2023-01-27T14:22:07.852Z,4.32
2023-01-27T14:24:37.930Z,4.80
2023-01-27T14:27:25.798Z,5.55
2023-01-27T14:30:05.333Z,3.92
2023-01-27T14:33:05.537Z,3.70
2023-01-27T14:35:55.354Z,4.80
2023-01-27T14:38:39.717Z,8.77
2023-01-27T14:41:21.217Z,8.25
2023-01-27T14:44:05.958Z,6.15
2023-01-27T14:47:01.185Z,10.50
2023-01-27T14:50:02.835Z,9.57
2023-01-27T14:52:41.974Z,6.18
2023-01-27T14:55:30.197Z,9.93
2023-01-27T14:58:04.638Z,7.57
2023-01-27T15:00:56.468Z,9.68
2023-01-27T15:03:47.831Z,5.95
2023-01-27T15:06:49.538Z,5.97
2023-01-27T15:09:32.375Z,12.35
2023-01-27T15:12:08.748Z,7.75
2023-01-27T15:15:03.239Z,8.27
2023-01-27T15:17:55.123Z,5.22
2023-01-27T15:20:41.478Z,5.93
2023-01-27T15:23:37.846Z,5.57
2023-01-27T15:26:08.394Z,6.10
2023-01-27T15:28:39.621Z,4.88
2023-01-27T15:31:15.361Z,10.50
2023-01-27T15:34:16.065Z,6.18
2023-01-27T15:37:10.173Z,5.97
2023-01-27T15:40:05.796Z,4.72
2023-01-27T15:42:57.680Z,8.50
2023-01-27T15:45:35.297Z,10.52
2023-01-27T15:48:06.695Z,11.43
2023-01-27T15:50:37.675Z,9.10
2023-01-27T15:53:13.348Z,7.45
2023-01-27T15:55:49.247Z,7.72
2023-01-27T15:58:28.618Z,10.27
2023-01-27T16:00:57.625Z,7.60
2023-01-27T16:03:30.715Z,8.55
2023-01-27T16:06:08.832Z,8.18
2023-01-27T16:09:06.554Z,5.80
2023-01-27T16:11:36.403Z,5.35
2023-01-27T16:14:11.959Z,9.40
2023-01-27T16:16:40.304Z,8.27
2023-01-27T16:19:10.935Z,6.38
2023-01-27T16:21:37.562Z,4.90
2023-01-27T16:24:17.569Z,5.32
2023-01-27T16:27:32.192Z,5.30
2023-01-27T16:30:11.377Z,4.95
2023-01-27T16:32:42.253Z,3.58
2023-01-27T16:35:18.395Z,4.78
2023-01-27T16:38:04.947Z,4.18
2023-01-27T16:40:34.533Z,6.13
2023-01-27T16:43:06.486Z,4.75
2023-01-27T16:45:43.617Z,4.85
2023-01-27T16:48:43.849Z,5.63
2023-01-27T16:51:15.421Z,6.25
2023-01-27T16:53:46.537Z,8.13
2023-01-27T16:56:22.273Z,9.02
2023-01-27T16:58:51.032Z,7.78
2023-01-27T17:01:28.408Z,7.57
2023-01-27T17:04:04.801Z,7.95
2023-01-27T17:06:37.747Z,6.72
2023-01-27T17:09:19.880Z,6.47
2023-01-27T17:11:46.833Z,7.28
2023-01-27T17:14:28.688Z,9.02
2023-01-27T17:17:01.058Z,7.97
2023-01-27T17:19:31.248Z,7.10
2023-01-27T17:22:02.277Z,4.93
2023-01-27T17:24:38.157Z,5.40
2023-01-27T17:27:07.357Z,6.18
2023-01-27T17:29:38.119Z,5.90
2023-01-27T17:32:24.914Z,5.95
2023-01-27T17:34:55.735Z,5.70
2023-01-27T17:37:23.923Z,5.00
2023-01-27T17:40:01.807Z,6.63
2023-01-27T17:42:33.495Z,5.50
2023-01-27T17:45:35.343Z,5.75
2023-01-27T17:48:02.083Z,3.90
2023-01-27T17:50:36.326Z,5.78
2023-01-27T17:53:11.532Z,5.38
2023-01-27T17:55:39.133Z,6.30
2023-01-27T17:58:24.476Z,6.43
2023-01-27T18:00:52.012Z,5.97
2023-01-27T18:03:23.652Z,6.03
2023-01-27T18:05:53.708Z,5.63
2023-01-27T18:08:23.351Z,6.30
2023-01-27T18:10:50.555Z,6.72
2023-01-27T18:13:34.672Z,6.50
2023-01-27T18:16:03.841Z,6.32
2023-01-27T18:18:32.915Z,5.93
2023-01-27T18:20:59.267Z,6.18
2023-01-27T18:23:47.907Z,5.70
2023-01-27T18:26:17.571Z,5.60
2023-01-27T18:28:45.820Z,5.97
2023-01-27T18:31:15.602Z,5.95
2023-01-27T18:33:43.795Z,5.20
2023-01-27T18:36:22.819Z,6.75
2023-01-27T18:38:50.879Z,6.30
2023-01-27T18:41:29.560Z,6.72
2023-01-27T18:43:56.272Z,5.93
2023-01-27T18:46:22.926Z,6.20
2023-01-27T18:48:49.359Z,7.28
2023-01-27T18:51:16.633Z,5.57
2023-01-27T18:53:43.270Z,7.50
2023-01-27T18:56:09.733Z,6.35
2023-01-27T18:58:37.042Z,6.25
2023-01-27T19:01:05.581Z,5.70
2023-01-27T19:03:36.911Z,4.95
2023-01-27T19:06:03.322Z,5.65
2023-01-27T19:08:29.806Z,6.18
2023-01-27T19:10:56.211Z,10.55
2023-01-27T19:13:23.583Z,8.70
2023-01-27T19:15:54.900Z,7.13
2023-01-27T19:18:26.485Z,7.57
2023-01-27T19:20:52.933Z,5.80
2023-01-27T19:23:20.780Z,5.90
2023-01-27T19:25:50.670Z,7.88
2023-01-27T19:28:28.370Z,7.63
2023-01-27T19:30:54.871Z,7.28
2023-01-27T19:33:23.748Z,7.88
2023-01-27T19:36:03.101Z,7.50
2023-01-27T19:38:29.974Z,7.07
2023-01-27T19:40:56.467Z,6.25
2023-01-27T19:43:22.888Z,4.65
2023-01-27T19:45:49.997Z,5.25
2023-01-27T19:48:21.156Z,6.43
2023-01-27T19:50:49.000Z,5.65
2023-01-27T19:53:16.943Z,6.32
2023-01-27T19:55:44.129Z,5.82
2023-01-27T19:58:21.247Z,5.40
2023-01-27T20:00:48.136Z,5.70
2023-01-27T20:03:14.601Z,4.95
2023-01-27T20:05:41.017Z,5.40
2023-01-27T20:08:14.116Z,4.28
2023-01-27T20:10:40.653Z,5.35
2023-01-27T20:13:09.440Z,12.23
2023-01-27T20:15:37.424Z,21.85
2023-01-27T20:18:04.599Z,6.13
2023-01-27T20:20:31.127Z,6.95
2023-01-27T20:22:57.713Z,6.38
2023-01-27T20:25:26.026Z,5.85
2023-01-27T20:27:58.208Z,5.43
2023-01-27T20:30:33.559Z,6.35
2023-01-27T20:33:01.491Z,6.32
2023-01-27T20:35:28.188Z,5.68
2023-01-27T20:37:54.954Z,5.55
2023-01-27T20:40:24.126Z,4.75
2023-01-27T20:42:51.739Z,5.88
2023-01-27T20:45:19.122Z,5.60
2023-01-27T20:47:53.891Z,5.80
2023-01-27T20:50:21.445Z,5.45
2023-01-27T20:52:51.306Z,5.47
2023-01-27T20:55:19.424Z,6.32
2023-01-27T20:57:47.171Z,7.55
2023-01-27T21:00:21.513Z,6.65
2023-01-27T21:02:48.740Z,5.38
2023-01-27T21:05:16.086Z,7.00
2023-01-27T21:07:42.941Z,7.22
2023-01-27T21:10:10.118Z,6.63
2023-01-27T21:12:36.502Z,5.53
2023-01-27T21:15:07.985Z,5.30
2023-01-27T21:17:34.581Z,5.70
2023-01-27T21:20:01.042Z,6.03
2023-01-27T21:22:27.456Z,5.75
2023-01-27T21:24:53.844Z,5.35
2023-01-27T21:27:20.262Z,4.68
2023-01-27T21:29:46.659Z,5.45
2023-01-27T21:32:13.039Z,6.57
2023-01-27T21:34:39.422Z,7.35
2023-01-27T21:37:05.823Z,10.95
2023-01-27T21:39:32.217Z,6.38
2023-01-27T21:41:58.601Z,6.80
2023-01-27T21:44:46.934Z,7.25
2023-01-27T21:47:16.404Z,7.68
2023-01-27T21:50:00.391Z,7.10
2023-01-27T21:52:48.866Z,5.85
2023-01-27T21:55:28.344Z,6.63
2023-01-27T21:57:55.731Z,4.68
2023-01-27T22:00:27.688Z,5.65
2023-01-27T22:03:03.110Z,6.68
2023-01-27T22:05:31.773Z,5.00
2023-01-27T22:07:58.563Z,5.13
2023-01-27T22:10:27.559Z,4.50
2023-01-27T22:12:59.495Z,5.18
2023-01-27T22:15:28.753Z,4.93
2023-01-27T22:17:56.269Z,5.63
2023-01-27T22:20:22.827Z,6.05
2023-01-27T22:22:51.110Z,9.13
2023-01-27T22:25:18.159Z,5.70
2023-01-27T22:27:45.205Z,6.07
2023-01-27T22:30:18.389Z,5.38
2023-01-27T22:35:17.075Z,4.55
2023-01-27T22:37:44.544Z,4.63
2023-01-27T22:40:12.099Z,4.50
2023-01-27T22:42:40.083Z,4.65
2023-01-27T22:45:08.678Z,3.95
2023-01-27T22:47:35.531Z,3.67
2023-01-27T22:50:02.725Z,5.65
2023-01-27T22:52:29.119Z,5.78
2023-01-27T22:54:55.530Z,5.63
2023-01-27T22:57:21.947Z,6.20
2023-01-27T22:59:48.347Z,6.55
2023-01-27T23:02:14.873Z,5.80
2023-01-27T23:04:41.365Z,5.45
2023-01-27T23:07:07.738Z,5.82
2023-01-27T23:09:34.189Z,6.13
2023-01-27T23:12:00.749Z,5.07
2023-01-27T23:14:27.159Z,5.85
2023-01-27T23:16:53.729Z,4.45
2023-01-27T23:19:21.808Z,5.78
2023-01-27T23:21:48.238Z,4.55
2023-01-27T23:24:15.419Z,5.38
2023-01-27T23:26:41.879Z,5.25
2023-01-27T23:29:23.102Z,5.30
2023-01-27T23:31:51.254Z,3.88
2023-01-27T23:34:17.764Z,4.85
2023-01-27T23:36:44.334Z,4.40
2023-01-27T23:39:14.200Z,5.03
2023-01-27T23:41:40.805Z,5.97
2023-01-27T23:44:10.531Z,5.03
2023-01-27T23:46:37.062Z,5.70
2023-01-27T23:49:03.490Z,6.43
2023-01-27T23:51:30.040Z,5.53
2023-01-27T23:53:56.421Z,4.38
2023-01-27T23:56:22.930Z,5.10
2023-01-27T23:58:49.382Z,5.03
